createdAt,value
2024-02-02T00:01:37.191Z,3.15
2024-02-02T00:04:05.022Z,4.35
2024-02-02T00:06:32.454Z,3.05
2024-02-02T00:08:59.773Z,4.72
2024-02-02T00:11:27.006Z,3.85
2024-02-02T00:13:54.411Z,4.47
2024-02-02T00:16:21.251Z,4.03
2024-02-02T00:18:48.776Z,3.55
2024-02-02T00:21:16.294Z,3.50
2024-02-02T00:23:43.738Z,3.72
2024-02-02T00:26:11.227Z,4.13
2024-02-02T00:28:38.549Z,3.40
2024-02-02T00:31:05.929Z,4.05
2024-02-02T00:33:33.335Z,3.83
2024-02-02T00:36:00.862Z,4.43
2024-02-02T00:38:28.187Z,3.60
2024-02-02T00:40:55.447Z,3.28
2024-02-02T00:43:22.688Z,2.70
2024-02-02T00:45:49.917Z,2.13
2024-02-02T00:48:17.779Z,4.00
2024-02-02T00:50:45.068Z,3.67
2024-02-02T00:53:13.123Z,3.20
2024-02-02T00:55:40.439Z,3.65
2024-02-02T00:58:07.764Z,3.08
2024-02-02T01:00:35.241Z,3.58
2024-02-02T01:03:02.642Z,2.35
2024-02-02T01:05:32.171Z,3.28
2024-02-02T01:07:59.629Z,2.90
2024-02-02T01:10:59.250Z,3.08
2024-02-02T01:13:28.147Z,3.22
2024-02-02T01:15:55.515Z,3.17
2024-02-02T01:18:49.714Z,3.83
2024-02-02T01:21:17.169Z,2.85
2024-02-02T01:23:44.498Z,3.63
2024-02-02T01:26:11.791Z,3.35
2024-02-02T01:28:39.093Z,3.70
2024-02-02T01:31:06.287Z,2.88
2024-02-02T01:33:33.273Z,3.20
2024-02-02T01:36:00.850Z,2.97
2024-02-02T01:38:28.513Z,3.42
2024-02-02T01:40:55.829Z,3.42
2024-02-02T01:43:24.622Z,3.03
2024-02-02T01:45:52.426Z,3.60
2024-02-02T01:48:19.868Z,3.47
2024-02-02T01:50:47.389Z,2.40
2024-02-02T01:53:14.679Z,4.35
2024-02-02T01:55:41.948Z,4.43
2024-02-02T01:58:09.232Z,2.75
2024-02-02T02:00:37.467Z,3.03
2024-02-02T02:03:05.156Z,2.20
2024-02-02T02:05:32.637Z,2.85
2024-02-02T02:08:25.583Z,3.17
2024-02-02T02:10:52.877Z,3.50
2024-02-02T02:13:20.275Z,3.67
2024-02-02T02:15:47.569Z,3.22
2024-02-02T02:18:14.936Z,4.18
2024-02-02T02:20:42.818Z,3.97
2024-02-02T02:23:11.659Z,4.20
2024-02-02T02:25:40.303Z,3.92
2024-02-02T02:28:07.514Z,4.10
2024-02-02T02:30:34.843Z,3.42
2024-02-02T02:33:02.289Z,2.85
2024-02-02T02:35:29.559Z,2.65
2024-02-02T02:37:56.866Z,3.42
2024-02-02T02:40:24.101Z,2.92
2024-02-02T02:42:51.614Z,4.20
2024-02-02T02:45:19.046Z,2.58
2024-02-02T02:47:46.394Z,2.17
2024-02-02T02:50:13.826Z,3.17
2024-02-02T02:52:41.066Z,3.95
2024-02-02T02:55:08.446Z,3.65
2024-02-02T02:57:35.773Z,3.70
2024-02-02T03:00:03.762Z,2.47
2024-02-02T03:02:31.110Z,4.15
2024-02-02T03:04:58.660Z,3.53
2024-02-02T03:07:25.935Z,3.58
2024-02-02T03:09:53.217Z,3.15
2024-02-02T03:12:20.553Z,4.07
2024-02-02T03:14:47.802Z,4.13
2024-02-02T03:17:15.098Z,2.83
2024-02-02T03:19:42.448Z,3.60
2024-02-02T03:22:09.709Z,3.08
2024-02-02T03:24:37.090Z,3.60
2024-02-02T03:27:04.616Z,2.72
2024-02-02T03:29:31.837Z,4.22
2024-02-02T03:31:59.149Z,3.75
2024-02-02T03:34:26.557Z,3.10
2024-02-02T03:36:53.900Z,3.20
2024-02-02T03:39:21.520Z,2.80
2024-02-02T03:41:48.932Z,3.00
2024-02-02T03:44:16.294Z,2.65
2024-02-02T03:46:43.512Z,2.35
2024-02-02T03:49:10.925Z,3.50
2024-02-02T03:51:38.269Z,3.38
2024-02-02T03:54:05.880Z,2.95
2024-02-02T03:56:33.206Z,3.15
2024-02-02T04:02:41.686Z,3.22
2024-02-02T04:05:09.410Z,2.70
2024-02-02T04:07:36.622Z,3.47
2024-02-02T04:10:04.320Z,1.58
2024-02-02T04:12:31.693Z,2.60
2024-02-02T04:14:59.034Z,2.40
2024-02-02T04:17:25.845Z,2.63
2024-02-02T04:19:53.311Z,3.08
2024-02-02T04:22:20.706Z,2.67
2024-02-02T04:24:47.938Z,2.72
2024-02-02T04:27:15.246Z,3.67
2024-02-02T04:29:42.502Z,3.20
2024-02-02T04:32:09.778Z,2.47
2024-02-02T04:34:37.222Z,2.70
2024-02-02T04:37:04.691Z,2.97
2024-02-02T04:39:31.955Z,2.95
2024-02-02T04:41:59.304Z,2.25
2024-02-02T04:44:27.347Z,2.65
2024-02-02T04:46:55.025Z,2.30
2024-02-02T04:49:22.378Z,2.40
2024-02-02T04:51:49.696Z,2.38
2024-02-02T04:54:16.956Z,2.50
2024-02-02T04:56:44.233Z,3.90
2024-02-02T04:59:11.436Z,2.45
2024-02-02T05:01:38.688Z,2.20
2024-02-02T05:04:06.359Z,3.05
2024-02-02T05:06:33.778Z,2.25
2024-02-02T05:09:01.206Z,2.92
2024-02-02T05:11:28.531Z,2.28
2024-02-02T05:13:55.794Z,2.35
2024-02-02T05:16:23.175Z,2.70
2024-02-02T05:18:51.860Z,2.95
2024-02-02T05:21:19.220Z,2.10
2024-02-02T05:23:49.425Z,3.10
2024-02-02T05:26:18.341Z,2.55
2024-02-02T05:28:45.699Z,3.25
2024-02-02T05:31:13.006Z,2.30
2024-02-02T05:33:40.894Z,2.00
2024-02-02T05:36:08.934Z,1.90
2024-02-02T05:38:39.128Z,2.20
2024-02-02T05:41:06.438Z,2.70
2024-02-02T05:43:33.282Z,2.17
2024-02-02T05:46:00.565Z,2.53
2024-02-02T05:48:28.086Z,1.90
2024-02-02T05:50:55.485Z,2.33
2024-02-02T05:53:22.754Z,2.45
2024-02-02T05:55:50.001Z,2.15
2024-02-02T05:58:17.375Z,3.15
2024-02-02T06:00:44.703Z,2.95
2024-02-02T06:03:12.074Z,2.55
2024-02-02T06:05:39.559Z,2.30
2024-02-02T06:08:09.868Z,2.08
2024-02-02T06:10:37.138Z,2.42
2024-02-02T06:13:04.418Z,2.53
2024-02-02T06:15:31.863Z,2.90
2024-02-02T06:17:59.266Z,2.53
2024-02-02T06:20:26.610Z,1.85
2024-02-02T06:22:53.848Z,2.08
2024-02-02T06:25:21.313Z,2.45
2024-02-02T06:27:48.578Z,2.65
2024-02-02T06:30:16.078Z,2.58
2024-02-02T06:32:47.276Z,2.47
2024-02-02T06:35:14.870Z,2.20
2024-02-02T06:37:42.088Z,2.63
2024-02-02T06:40:09.624Z,2.10
2024-02-02T06:42:36.955Z,2.33
2024-02-02T06:45:04.336Z,2.75
2024-02-02T06:47:31.728Z,2.60
2024-02-02T06:49:59.211Z,2.58
2024-02-02T06:52:26.528Z,2.88
2024-02-02T06:54:53.932Z,2.08
2024-02-02T06:57:21.347Z,2.20
2024-02-02T06:59:49.919Z,3.45
2024-02-02T07:02:21.544Z,2.42
2024-02-02T07:04:51.988Z,1.52
2024-02-02T07:07:19.845Z,1.90
2024-02-02T07:09:52.824Z,3.35
2024-02-02T07:12:39.221Z,1.50
2024-02-02T07:15:06.717Z,2.42
2024-02-02T07:17:43.407Z,2.92
2024-02-02T07:20:11.153Z,2.60
2024-02-02T07:22:42.574Z,2.08
2024-02-02T07:25:18.876Z,2.13
2024-02-02T07:28:06.148Z,1.40
2024-02-02T07:30:33.528Z,2.08
2024-02-02T07:33:01.464Z,1.85
2024-02-02T07:35:39.499Z,2.30
2024-02-02T07:38:07.243Z,2.75
2024-02-02T07:40:43.872Z,2.47
2024-02-02T07:43:11.888Z,2.80
2024-02-02T07:45:39.135Z,2.10
2024-02-02T07:48:06.823Z,1.92
2024-02-02T07:50:35.896Z,3.08
2024-02-02T07:53:03.379Z,7.00
2024-02-02T07:55:30.608Z,3.33
2024-02-02T07:57:59.073Z,2.30
2024-02-02T08:00:27.322Z,2.53
2024-02-02T08:02:54.563Z,2.38
2024-02-02T08:05:21.795Z,2.15
2024-02-02T08:07:49.103Z,2.70
2024-02-02T08:10:16.463Z,2.67
2024-02-02T08:12:43.777Z,2.05
2024-02-02T08:15:11.091Z,3.10
2024-02-02T08:17:37.956Z,3.40
2024-02-02T08:20:05.451Z,3.15
2024-02-02T08:22:32.712Z,2.10
2024-02-02T08:24:59.889Z,2.97
2024-02-02T08:27:27.501Z,2.15
2024-02-02T08:29:54.953Z,2.25
2024-02-02T08:32:22.235Z,1.70
2024-02-02T08:34:49.571Z,2.03
2024-02-02T08:37:16.943Z,2.80
2024-02-02T08:39:44.613Z,1.98
2024-02-02T08:42:24.411Z,2.08
2024-02-02T08:44:56.724Z,1.67
2024-02-02T08:47:24.992Z,2.35
2024-02-02T08:50:00.798Z,2.05
2024-02-02T08:52:36.004Z,2.05
2024-02-02T08:55:07.296Z,2.53
2024-02-02T08:57:42.322Z,2.92
2024-02-02T09:00:14.829Z,1.98
2024-02-02T09:02:48.316Z,3.25
2024-02-02T09:05:21.899Z,2.22
2024-02-02T09:07:54.347Z,1.80
2024-02-02T09:10:44.590Z,2.47
2024-02-02T09:13:22.130Z,2.25
2024-02-02T09:15:49.376Z,2.72
2024-02-02T09:18:34.727Z,2.65
2024-02-02T09:21:02.792Z,2.17
2024-02-02T09:23:31.154Z,2.50
2024-02-02T09:25:59.090Z,1.80
2024-02-02T09:28:26.390Z,1.80
2024-02-02T09:31:00.967Z,2.67
2024-02-02T09:33:34.413Z,1.60
2024-02-02T09:36:05.186Z,1.55
2024-02-02T09:38:32.561Z,1.75
2024-02-02T09:41:03.207Z,1.95
2024-02-02T09:43:39.833Z,2.67
2024-02-02T09:46:10.321Z,2.42
2024-02-02T09:48:46.309Z,1.98
2024-02-02T09:51:43.032Z,2.38
2024-02-02T09:54:13.142Z,2.28
2024-02-02T09:56:52.359Z,2.28
2024-02-02T09:59:23.114Z,2.53
2024-02-02T10:02:10.916Z,3.22
2024-02-02T10:05:11.774Z,1.63
2024-02-02T10:08:00.919Z,2.70
2024-02-02T10:10:28.234Z,2.15
2024-02-02T10:13:01.654Z,2.33
2024-02-02T10:15:36.525Z,1.83
2024-02-02T10:18:23.465Z,2.90
2024-02-02T10:21:00.350Z,2.03
2024-02-02T10:23:34.232Z,2.47
2024-02-02T10:26:07.350Z,2.50
2024-02-02T10:28:37.445Z,1.67
2024-02-02T10:31:39.927Z,2.58
2024-02-02T10:34:16.238Z,2.25
2024-02-02T10:36:52.266Z,2.00
2024-02-02T10:39:27.223Z,2.60
2024-02-02T10:42:30.701Z,2.22
2024-02-02T10:44:58.000Z,2.40
2024-02-02T10:47:40.698Z,2.28
2024-02-02T10:50:31.290Z,2.67
2024-02-02T10:53:22.961Z,2.45
2024-02-02T10:55:53.252Z,2.33
2024-02-02T10:58:23.362Z,2.05
2024-02-02T11:00:57.161Z,2.35
2024-02-02T11:03:34.287Z,2.50
2024-02-02T11:06:05.738Z,2.75
2024-02-02T11:08:36.755Z,1.98
2024-02-02T11:11:06.397Z,1.95
2024-02-02T11:13:49.117Z,2.30
2024-02-02T11:16:38.436Z,1.88
2024-02-02T11:19:20.940Z,1.65
2024-02-02T11:22:07.028Z,1.65
2024-02-02T11:24:37.678Z,2.05
2024-02-02T11:27:07.956Z,1.98
2024-02-02T11:29:39.077Z,2.30
2024-02-02T11:32:27.935Z,1.90
2024-02-02T11:35:11.022Z,1.55
2024-02-02T11:38:08.798Z,1.58
2024-02-02T11:40:37.532Z,1.48
2024-02-02T11:43:09.777Z,1.48
2024-02-02T11:45:40.241Z,2.13
2024-02-02T11:48:10.100Z,1.92
2024-02-02T11:50:45.164Z,1.92
2024-02-02T11:53:32.753Z,3.20
2024-02-02T11:56:08.351Z,2.03
2024-02-02T11:58:37.735Z,2.10
2024-02-02T12:01:25.418Z,2.10
2024-02-02T12:04:30.885Z,2.60
2024-02-02T12:07:10.761Z,1.90
2024-02-02T12:09:45.165Z,1.63
2024-02-02T12:12:18.052Z,2.35
2024-02-02T12:14:52.175Z,2.13
2024-02-02T12:17:19.663Z,1.73
2024-02-02T12:19:47.363Z,2.05
2024-02-02T12:22:17.711Z,1.95
2024-02-02T12:24:45.094Z,1.90
2024-02-02T12:27:12.539Z,2.28
2024-02-02T12:29:40.140Z,2.58
2024-02-02T12:32:07.553Z,3.33
2024-02-02T12:34:34.948Z,3.97
2024-02-02T12:37:02.877Z,3.45
2024-02-02T12:39:32.714Z,3.63
2024-02-02T12:42:00.397Z,5.10
2024-02-02T12:44:27.809Z,2.85
2024-02-02T12:46:55.884Z,2.42
2024-02-02T12:49:25.428Z,3.63
2024-02-02T12:51:55.626Z,2.85
2024-02-02T12:54:22.936Z,3.05
2024-02-02T12:56:50.854Z,2.65
2024-02-02T12:59:19.583Z,2.60
2024-02-02T13:01:49.054Z,3.28
2024-02-02T13:04:18.163Z,3.00
2024-02-02T13:06:46.588Z,3.67
2024-02-02T13:09:30.396Z,3.08
2024-02-02T13:11:59.225Z,2.67
2024-02-02T13:14:46.820Z,2.70
2024-02-02T13:17:16.113Z,2.58
2024-02-02T13:19:49.049Z,3.92
2024-02-02T13:22:22.390Z,2.47
2024-02-02T13:24:51.529Z,3.75
2024-02-02T13:27:20.360Z,3.95
2024-02-02T13:29:52.965Z,5.70
2024-02-02T13:32:21.503Z,3.05
2024-02-02T13:34:48.989Z,5.07
2024-02-02T13:37:30.241Z,4.00
2024-02-02T13:39:58.584Z,3.35
2024-02-02T13:42:26.794Z,3.53
2024-02-02T13:44:54.512Z,3.55
2024-02-02T13:47:22.128Z,3.30
2024-02-02T13:49:56.547Z,3.00
2024-02-02T13:52:25.576Z,2.35
2024-02-02T13:54:55.140Z,2.20
2024-02-02T13:57:22.998Z,2.90
2024-02-02T13:59:51.684Z,3.15
2024-02-02T14:02:19.005Z,3.35
2024-02-02T14:04:46.516Z,2.50
2024-02-02T14:07:17.571Z,3.60
2024-02-02T14:09:47.230Z,2.47
2024-02-02T14:12:15.783Z,3.63
2024-02-02T14:14:43.171Z,3.65
2024-02-02T14:17:10.614Z,2.90
2024-02-02T14:19:38.133Z,2.50
2024-02-02T14:22:06.618Z,2.65
2024-02-02T14:24:34.376Z,2.45
2024-02-02T14:27:03.376Z,2.80
2024-02-02T14:29:41.286Z,2.50
2024-02-02T14:32:08.951Z,2.80
2024-02-02T14:34:36.306Z,3.88
2024-02-02T14:37:09.339Z,3.15
2024-02-02T14:39:36.853Z,2.97
2024-02-02T14:42:04.892Z,3.88
2024-02-02T14:44:32.265Z,2.75
2024-02-02T14:47:01.323Z,4.15
2024-02-02T14:49:28.986Z,3.75
2024-02-02T14:51:56.707Z,3.53
2024-02-02T14:54:27.870Z,3.00
2024-02-02T14:56:55.247Z,3.85
2024-02-02T14:59:29.527Z,3.50
2024-02-02T15:01:57.448Z,3.70
2024-02-02T15:04:25.211Z,3.10
2024-02-02T15:06:52.729Z,4.10
2024-02-02T15:09:20.857Z,3.22
2024-02-02T15:11:48.363Z,3.17
2024-02-02T15:14:16.178Z,2.83
2024-02-02T15:16:43.550Z,3.22
2024-02-02T15:19:11.313Z,4.35
2024-02-02T15:21:38.814Z,4.28
2024-02-02T15:24:06.188Z,4.60
2024-02-02T15:26:39.889Z,3.28
2024-02-02T15:29:08.980Z,2.97
2024-02-02T15:31:36.380Z,4.85
2024-02-02T15:34:07.386Z,5.18
2024-02-02T15:36:36.241Z,3.80
2024-02-02T15:39:18.674Z,3.17
2024-02-02T15:41:53.906Z,3.97
2024-02-02T15:44:21.256Z,3.78
2024-02-02T15:46:48.534Z,3.50
2024-02-02T15:49:16.023Z,3.95
2024-02-02T15:51:43.648Z,3.22
2024-02-02T15:54:11.047Z,4.05
2024-02-02T15:56:38.410Z,4.05
2024-02-02T15:59:06.030Z,4.18
2024-02-02T16:01:33.459Z,4.25
2024-02-02T16:04:00.968Z,4.65
2024-02-02T16:06:29.151Z,4.20
2024-02-02T16:08:56.533Z,5.35
2024-02-02T16:11:23.757Z,3.72
2024-02-02T16:13:51.216Z,5.20
2024-02-02T16:16:18.504Z,3.92
2024-02-02T16:18:46.030Z,4.60
2024-02-02T16:21:13.511Z,4.38
2024-02-02T16:23:40.832Z,4.28
2024-02-02T16:26:08.146Z,5.30
2024-02-02T16:28:35.389Z,3.42
2024-02-02T16:31:02.750Z,4.43
2024-02-02T16:33:30.196Z,3.50
2024-02-02T16:35:57.517Z,5.57
2024-02-02T16:38:24.814Z,6.38
2024-02-02T16:40:52.286Z,3.97
2024-02-02T16:43:19.628Z,5.28
2024-02-02T16:45:47.929Z,5.47
2024-02-02T16:48:15.350Z,5.00
2024-02-02T16:50:42.663Z,4.95
2024-02-02T16:53:10.248Z,5.57
2024-02-02T16:55:37.494Z,6.13
2024-02-02T16:58:04.801Z,4.57
2024-02-02T17:00:32.269Z,6.45
2024-02-02T17:02:59.801Z,5.38
2024-02-02T17:05:27.460Z,5.18
2024-02-02T17:07:54.750Z,6.88
2024-02-02T17:10:22.052Z,8.40
2024-02-02T17:12:49.411Z,5.10
2024-02-02T17:15:17.970Z,3.80
2024-02-02T17:17:46.264Z,4.15
2024-02-02T17:20:16.056Z,5.50
2024-02-02T17:22:45.457Z,5.65
2024-02-02T17:25:12.874Z,5.93
2024-02-02T17:27:42.238Z,7.05
2024-02-02T17:30:09.886Z,7.03
2024-02-02T17:32:39.723Z,5.55
2024-02-02T17:35:08.680Z,5.97
2024-02-02T17:37:36.589Z,6.65
2024-02-02T17:40:04.837Z,5.07
2024-02-02T17:42:31.849Z,3.33
2024-02-02T17:44:59.220Z,4.22
2024-02-02T17:47:26.535Z,4.35
2024-02-02T17:49:56.769Z,3.95
2024-02-02T17:52:25.466Z,3.22
2024-02-02T17:54:52.843Z,6.28
2024-02-02T17:57:20.431Z,4.30
2024-02-02T17:59:47.895Z,3.92
2024-02-02T18:02:15.763Z,4.80
2024-02-02T18:04:43.093Z,5.28
2024-02-02T18:07:12.858Z,4.95
2024-02-02T18:09:40.705Z,6.18
2024-02-02T18:12:14.366Z,6.85
2024-02-02T18:14:42.359Z,5.70
2024-02-02T18:17:10.406Z,4.35
2024-02-02T18:19:38.263Z,5.10
2024-02-02T18:22:05.685Z,3.95
2024-02-02T18:24:32.984Z,4.85
2024-02-02T18:27:00.425Z,3.55
2024-02-02T18:29:27.889Z,4.95
2024-02-02T18:31:55.377Z,4.32
2024-02-02T18:34:22.805Z,3.85
2024-02-02T18:36:50.258Z,5.85
2024-02-02T18:39:19.085Z,6.30
2024-02-02T18:41:46.431Z,5.97
2024-02-02T18:44:13.948Z,4.35
2024-02-02T18:46:41.371Z,6.15
2024-02-02T18:49:08.391Z,6.13
2024-02-02T18:51:35.857Z,5.82
2024-02-02T18:54:03.217Z,3.95
2024-02-02T18:56:31.727Z,4.05
2024-02-02T18:58:59.109Z,4.13
2024-02-02T19:01:35.666Z,4.28
2024-02-02T19:04:03.303Z,4.25
2024-02-02T19:06:30.966Z,5.63
2024-02-02T19:08:58.345Z,5.32
2024-02-02T19:11:25.704Z,5.75
2024-02-02T19:13:53.413Z,4.03
2024-02-02T19:16:25.649Z,4.28
2024-02-02T19:18:53.478Z,3.40
2024-02-02T19:21:27.692Z,3.50
2024-02-02T19:23:56.001Z,5.10
2024-02-02T19:26:23.702Z,6.43
2024-02-02T19:28:51.060Z,4.60
2024-02-02T19:31:30.521Z,6.20
2024-02-02T19:33:58.009Z,5.63
2024-02-02T19:36:27.407Z,6.47
2024-02-02T19:38:55.173Z,4.88
2024-02-02T19:41:26.623Z,5.03
2024-02-02T19:43:54.158Z,3.50
2024-02-02T19:46:25.965Z,5.38
2024-02-02T19:48:57.984Z,5.95
2024-02-02T19:51:26.223Z,4.22
2024-02-02T19:53:53.680Z,4.15
2024-02-02T19:56:21.074Z,5.03
2024-02-02T19:58:48.835Z,3.65
2024-02-02T20:01:17.113Z,4.93
2024-02-02T20:03:45.492Z,5.10
2024-02-02T20:06:13.353Z,5.13
2024-02-02T20:08:40.959Z,3.42
2024-02-02T20:11:20.627Z,5.60
2024-02-02T20:13:48.411Z,5.35
2024-02-02T20:16:17.236Z,5.25
2024-02-02T20:18:45.008Z,4.13
2024-02-02T20:21:16.338Z,4.05
2024-02-02T20:23:45.601Z,4.43
2024-02-02T20:26:18.394Z,4.55
2024-02-02T20:28:47.007Z,5.13
2024-02-02T20:31:14.499Z,5.00
2024-02-02T20:33:41.961Z,3.78
2024-02-02T20:36:10.039Z,5.15
2024-02-02T20:38:37.469Z,5.43
2024-02-02T20:41:06.002Z,4.90
2024-02-02T20:43:33.466Z,4.57
2024-02-02T20:46:00.864Z,4.97
2024-02-02T20:48:28.276Z,5.57
2024-02-02T20:50:56.075Z,7.03
2024-02-02T20:53:23.487Z,5.15
2024-02-02T20:55:50.684Z,5.88
2024-02-02T20:58:18.062Z,5.05
2024-02-02T21:00:45.454Z,5.25
2024-02-02T21:03:13.138Z,4.13
2024-02-02T21:05:41.701Z,5.45
2024-02-02T21:08:09.482Z,4.38
2024-02-02T21:10:36.801Z,4.72
2024-02-02T21:13:04.151Z,3.47
2024-02-02T21:15:35.172Z,5.45
2024-02-02T21:18:09.159Z,5.40
2024-02-02T21:20:44.478Z,4.18
2024-02-02T21:23:12.337Z,5.05
2024-02-02T21:25:44.028Z,7.43
2024-02-02T21:28:11.327Z,4.93
2024-02-02T21:30:38.743Z,4.53
2024-02-02T21:33:06.495Z,4.55
2024-02-02T21:35:33.954Z,4.50
2024-02-02T21:38:01.210Z,5.72
2024-02-02T21:40:28.654Z,4.72
2024-02-02T21:42:56.017Z,5.40
2024-02-02T21:45:23.424Z,4.78
2024-02-02T21:47:50.595Z,4.70
2024-02-02T21:50:18.182Z,5.28
2024-02-02T21:52:45.522Z,4.53
2024-02-02T21:55:12.790Z,5.07
2024-02-02T21:57:40.112Z,4.68
2024-02-02T22:00:08.439Z,4.10
2024-02-02T22:02:35.516Z,4.85
2024-02-02T22:05:03.128Z,6.05
2024-02-02T22:07:30.455Z,4.00
2024-02-02T22:09:59.165Z,4.35
2024-02-02T22:12:26.570Z,4.30
2024-02-02T22:14:53.818Z,4.38
2024-02-02T22:17:21.031Z,4.93
2024-02-02T22:19:48.372Z,5.13
2024-02-02T22:22:15.875Z,3.97
2024-02-02T22:24:43.187Z,4.72
2024-02-02T22:27:10.745Z,4.00
2024-02-02T22:29:38.161Z,3.53
2024-02-02T22:32:05.651Z,4.05
2024-02-02T22:34:33.480Z,3.60
2024-02-02T22:37:01.136Z,4.53
2024-02-02T22:39:28.834Z,3.95
2024-02-02T22:41:56.126Z,3.15
2024-02-02T22:44:23.506Z,6.07
2024-02-02T22:46:50.764Z,4.70
2024-02-02T22:49:18.200Z,5.00
2024-02-02T22:51:49.341Z,4.65
2024-02-02T22:54:16.891Z,3.75
2024-02-02T22:56:44.464Z,4.30
2024-02-02T22:59:12.167Z,4.38
2024-02-02T23:01:39.495Z,3.28
2024-02-02T23:04:07.190Z,3.88
2024-02-02T23:06:34.806Z,3.53
2024-02-02T23:09:02.168Z,2.75
2024-02-02T23:11:29.467Z,3.95
2024-02-02T23:13:56.697Z,3.45
2024-02-02T23:16:24.067Z,2.15
2024-02-02T23:18:51.959Z,3.00
2024-02-02T23:21:19.378Z,2.47
2024-02-02T23:23:48.713Z,2.20
2024-02-02T23:26:16.003Z,2.47
2024-02-02T23:28:43.744Z,2.70
2024-02-02T23:31:10.805Z,1.80
2024-02-02T23:33:38.235Z,1.75
2024-02-02T23:36:05.946Z,1.92
2024-02-02T23:38:33.347Z,2.50
2024-02-02T23:41:01.112Z,2.47
2024-02-02T23:43:28.356Z,2.20
2024-02-02T23:45:55.685Z,1.50
2024-02-02T23:48:23.307Z,2.28
2024-02-02T23:50:50.622Z,2.00
2024-02-02T23:53:17.858Z,1.30
2024-02-02T23:55:45.178Z,1.40
2024-02-02T23:58:12.597Z,1.83
